Terminal Aerodrome Forecast
Issued by NWS New Orleans/Baton Rouge, LA

Home | Current Version | Previous Version | Text Only | Print | Product List | Glossary On
Versions: 1 2 3 4 5 6 7 8 9 10 11 12 13 14 15 16 17 18 19
000
FTUS44 KLIX 302335
TAFBTR
TAF
KBTR 302335Z 0100/0124 23008KT P6SM SCT040 BKN200
     FM010800 VRB03KT P6SM SCT005 BKN150
     FM011300 23006KT P6SM SCT030 BKN150 PROB30 0115/0118 VRB15KT
      2SM TSRA BR BKN030CB=

USA.gov is the U.S. government's official web portal to all federal, state and local government web resources and services.